Time;durP1;ratioP1;P1;durP2;ratioP2;P2;SDS_P1;SDS_P2;PMS_P1;PMS_P2;Temp;Humidity;BMP_temperature;BMP_pressure;BME280_temperature;BME280_humidity;BME280_pressure;Samples;Min_cycle;Max_cycle;Signal;HPM_P1;HPM_P2
2020/12/21 00:01:39;;;;;;;9.83;7.30;;;;;;;5.36;90.75;95997.38;5022252;28;20502;-81
2020/12/21 00:04:05;;;;;;;13.07;7.80;;;;;;;5.25;90.29;95996.13;5055765;28;20824;-81
2020/12/21 00:06:31;;;;;;;11.07;6.20;;;;;;;5.11;90.38;96000.25;5055790;28;20464;-80
2020/12/21 00:08:59;;;;;;;8.43;6.20;;;;;;;5.02;90.82;96005.88;5021119;28;20442;-81
2020/12/21 00:11:32;;;;;;;6.00;5.23;;;;;;;4.92;91.69;96003.69;5056000;28;20441;-79
2020/12/21 00:13:59;;;;;;;8.60;5.70;;;;;;;4.96;91.80;96002.66;5055941;28;20441;-80
2020/12/21 00:16:25;;;;;;;9.77;5.03;;;;;;;4.82;92.58;95997.19;5056305;28;20469;-80
2020/12/21 00:18:52;;;;;;;8.90;6.03;;;;;;;4.84;92.74;96000.56;5056839;28;20511;-81
2020/12/21 00:21:18;;;;;;;8.37;5.13;;;;;;;4.56;93.52;96000.09;5057540;28;20441;-81
2020/12/21 00:23:44;;;;;;;8.83;6.20;;;;;;;4.56;93.99;96002.69;5055650;28;20543;-79
2020/12/21 00:26:12;;;;;;;10.00;6.47;;;;;;;4.48;94.11;96007.41;5055567;28;20449;-79
2020/12/21 00:28:38;;;;;;;7.70;6.20;;;;;;;4.68;94.03;96006.53;5054161;28;20453;-79
2020/12/21 00:31:04;;;;;;;8.70;6.70;;;;;;;4.73;94.06;96002.81;5054242;28;20456;-79
2020/12/21 00:33:32;;;;;;;9.43;6.57;;;;;;;4.56;93.98;96002.69;5054005;28;20445;-79
2020/12/21 00:35:59;;;;;;;11.30;6.60;;;;;;;4.44;95.20;96005.84;5054954;28;21043;-77
2020/12/21 00:38:25;;;;;;;11.20;6.77;;;;;;;4.56;94.23;96003.53;5060269;28;20480;-80
2020/12/21 00:40:51;;;;;;;12.47;7.07;;;;;;;4.57;95.14;96009.59;5060948;28;21007;-80
2020/12/21 00:43:19;;;;;;;11.80;6.80;;;;;;;4.70;94.04;96013.34;5060353;28;20449;-79
2020/12/21 00:45:46;;;;;;;8.80;6.70;;;;;;;4.81;93.69;96005.06;5061679;28;20452;-79
2020/12/21 00:48:12;;;;;;;9.77;7.00;;;;;;;4.88;93.90;96009.94;5061531;28;20449;-79
2020/12/21 00:50:38;;;;;;;10.87;6.60;;;;;;;4.97;92.79;96012.13;5059286;28;20825;-79
2020/12/21 00:53:05;;;;;;;8.90;5.80;;;;;;;5.03;92.77;96012.75;5056215;28;20446;-81
2020/12/21 00:55:31;;;;;;;8.70;6.40;;;;;;;5.03;92.80;96010.16;5059189;28;20441;-80
2020/12/21 00:57:58;;;;;;;8.40;6.60;;;;;;;4.93;92.53;96015.78;5021021;28;20484;-78
2020/12/21 01:00:25;;;;;;;13.00;6.73;;;;;;;4.94;92.34;96007.06;5056476;28;20441;-80
2020/12/21 01:02:52;;;;;;;7.93;5.53;;;;;;;4.97;92.64;96014.72;5057239;28;20464;-80
2020/12/21 01:05:18;;;;;;;7.70;5.67;;;;;;;5.00;92.97;96007.72;5055038;28;20445;-80
2020/12/21 01:07:45;;;;;;;9.20;6.27;;;;;;;5.10;91.85;96014.16;5054471;28;20532;-80
2020/12/21 01:10:11;;;;;;;11.63;7.20;;;;;;;5.17;91.68;96010.38;5055458;28;20445;-80
2020/12/21 01:12:37;;;;;;;11.60;7.23;;;;;;;5.07;91.28;96009.09;5054187;28;20452;-80
2020/12/21 01:15:04;;;;;;;10.13;6.93;;;;;;;5.11;91.67;96018.47;5053769;28;20449;-80
2020/12/21 01:17:33;;;;;;;9.10;6.87;;;;;;;5.20;91.44;96002.41;5054092;28;20503;-80
2020/12/21 01:19:59;;;;;;;14.80;9.10;;;;;;;5.14;90.96;96008.75;5055747;28;20479;-80
2020/12/21 01:22:25;;;;;;;15.23;7.83;;;;;;;5.17;91.57;96007.75;5053832;28;21069;-81
2020/12/21 01:24:52;;;;;;;12.73;6.63;;;;;;;5.06;91.51;96015.22;5053198;28;20441;-81
2020/12/21 01:27:18;;;;;;;11.57;7.77;;;;;;;5.07;90.97;96007.34;5053072;28;20453;-78
2020/12/21 01:29:44;;;;;;;13.40;6.77;;;;;;;4.90;92.17;96007.25;5052485;28;20472;-79
2020/12/21 01:32:11;;;;;;;11.50;7.13;;;;;;;4.97;91.81;96009.53;5052859;28;20449;-79
2020/12/21 01:34:38;;;;;;;10.10;5.70;;;;;;;5.07;92.33;96009.09;5053743;28;20781;-79
2020/12/21 01:37:04;;;;;;;7.67;6.00;;;;;;;5.14;91.38;96005.31;5052856;28;20441;-78
2020/12/21 01:39:31;;;;;;;8.33;5.53;;;;;;;5.18;91.75;96005.09;5052659;28;20856;-79
2020/12/21 01:41:57;;;;;;;7.83;6.13;;;;;;;5.28;91.36;96010.75;5052627;28;20442;-79
2020/12/21 01:44:23;;;;;;;8.80;5.93;;;;;;;5.36;90.85;96012.97;5052900;28;20449;-78
2020/12/21 01:46:50;;;;;;;9.67;6.87;;;;;;;5.36;90.40;96010.38;5053206;28;20448;-81
2020/12/21 01:49:17;;;;;;;8.93;6.53;;;;;;;5.41;90.42;96005.78;5052537;28;20444;-79
2020/12/21 01:51:44;;;;;;;13.40;7.67;;;;;;;5.19;91.01;96008.53;5052516;28;20807;-79
2020/12/21 01:54:11;;;;;;;15.93;8.20;;;;;;;5.18;91.54;96009.44;5052577;28;20964;-79
2020/12/21 01:56:37;;;;;;;10.63;7.03;;;;;;;5.22;90.39;96011.03;5052406;28;20453;-79
2020/12/21 01:59:04;;;;;;;11.37;7.23;;;;;;;5.02;91.25;96003.28;5052392;28;20851;-79
2020/12/21 02:01:33;;;;;;;10.90;6.90;;;;;;;5.07;92.38;96006.50;5052419;28;20488;-79
2020/12/21 02:03:59;;;;;;;9.90;6.80;;;;;;;4.96;91.71;96000.03;5052638;28;20449;-79
2020/12/21 02:06:26;;;;;;;10.63;6.77;;;;;;;4.89;92.57;95995.16;5052496;28;20514;-79
2020/12/21 02:08:54;;;;;;;13.10;8.03;;;;;;;4.97;92.33;96001.72;5052356;28;20457;-80
2020/12/21 02:11:25;;;;;;;10.40;7.23;;;;;;;5.04;92.24;96001.44;5052607;28;20451;-79
2020/12/21 02:13:51;;;;;;;12.27;8.00;;;;;;;5.20;92.18;95997.22;5052460;28;20488;-79
2020/12/21 02:16:18;;;;;;;15.50;9.40;;;;;;;5.33;92.21;95987.09;5052314;28;20441;-79
2020/12/21 02:18:44;;;;;;;14.17;9.47;;;;;;;5.43;91.97;95989.19;5052302;28;20484;-79
2020/12/21 02:21:11;;;;;;;18.57;10.70;;;;;;;5.51;90.91;95992.28;5052099;28;20953;-79
2020/12/21 02:23:38;;;;;;;10.93;8.30;;;;;;;5.59;91.40;95991.94;5052304;28;20492;-79
2020/12/21 02:26:04;;;;;;;17.33;10.37;;;;;;;5.69;90.76;95997.53;5052270;28;20446;-79
2020/12/21 02:28:30;;;;;;;16.97;8.90;;;;;;;5.71;90.56;95993.09;5016918;28;20456;-79
2020/12/21 02:30:57;;;;;;;15.50;8.17;;;;;;;5.79;90.78;95996.19;5052294;28;20503;-79
2020/12/21 02:33:23;;;;;;;12.93;8.43;;;;;;;5.83;89.70;95992.50;5052317;28;20524;-79
2020/12/21 02:35:49;;;;;;;13.90;8.60;;;;;;;5.88;89.57;95993.97;5052183;28;20516;-79
2020/12/21 02:38:17;;;;;;;15.17;9.13;;;;;;;5.93;89.41;95982.50;5051875;28;20903;-79
2020/12/21 02:40:43;;;;;;;18.10;11.00;;;;;;;5.94;88.21;95986.81;5052646;28;20775;-79
2020/12/21 02:43:09;;;;;;;20.53;10.67;;;;;;;5.95;88.33;95991.09;5056418;28;20905;-79
2020/12/21 02:45:36;;;;;;;19.20;10.60;;;;;;;5.98;87.80;95988.34;5056411;28;20445;-79
2020/12/21 02:48:02;;;;;;;14.77;9.70;;;;;;;6.00;88.42;95987.34;5056218;28;20440;-79
2020/12/21 02:50:28;;;;;;;15.50;9.23;;;;;;;6.01;87.92;95989.03;5055912;28;20452;-79
2020/12/21 02:52:55;;;;;;;15.13;9.13;;;;;;;6.02;88.33;95987.25;5020874;28;20499;-79
2020/12/21 02:55:22;;;;;;;16.57;10.50;;;;;;;6.04;87.79;95991.47;5056046;28;20451;-79
2020/12/21 02:57:48;;;;;;;15.03;10.07;;;;;;;6.08;88.07;95990.44;5055753;28;20514;-79
2020/12/21 03:00:15;;;;;;;21.13;10.37;;;;;;;6.08;87.57;95995.66;5055749;28;20445;-78
2020/12/21 03:02:41;;;;;;;16.27;9.63;;;;;;;6.10;88.02;95985.16;5056010;28;20440;-79
2020/12/21 03:05:08;;;;;;;15.97;11.37;;;;;;;6.08;87.10;95980.00;5055662;28;20441;-79
2020/12/21 03:07:35;;;;;;;22.17;11.77;;;;;;;6.08;86.67;95985.22;5055709;28;20532;-79
2020/12/21 03:10:01;;;;;;;23.27;12.60;;;;;;;6.06;87.35;95991.41;5055627;28;20437;-79
2020/12/21 03:12:28;;;;;;;23.63;13.87;;;;;;;6.02;88.08;95988.09;5055375;28;20499;-79
2020/12/21 03:14:55;;;;;;;26.43;13.70;;;;;;;6.02;88.20;95980.28;5055340;28;20452;-79
2020/12/21 03:17:21;;;;;;;31.07;15.47;;;;;;;6.04;87.65;95981.06;5055553;28;20441;-80
2020/12/21 03:19:47;;;;;;;27.60;14.63;;;;;;;6.05;87.69;95987.09;5055303;28;20488;-79
2020/12/21 03:22:14;;;;;;;24.27;13.10;;;;;;;6.03;87.82;95989.78;5055411;28;20528;-79
2020/12/21 03:24:40;;;;;;;21.40;13.63;;;;;;;5.99;87.85;95985.66;5055448;28;20875;-79
2020/12/21 03:27:06;;;;;;;20.63;13.10;;;;;;;5.94;87.62;95998.06;5036682;28;20507;-79
2020/12/21 03:29:34;;;;;;;13.83;10.60;;;;;;;5.90;88.17;95999.13;5020227;28;20447;-79
2020/12/21 03:32:00;;;;;;;18.43;11.40;;;;;;;5.87;87.78;96005.31;5054976;28;20448;-79
2020/12/21 03:34:26;;;;;;;20.17;10.53;;;;;;;5.79;87.99;95993.59;5055359;28;20449;-79
2020/12/21 03:36:53;;;;;;;15.80;10.50;;;;;;;5.75;88.41;95999.84;5054925;28;20548;-79
2020/12/21 03:39:19;;;;;;;16.77;10.37;;;;;;;5.71;88.84;95993.09;5055146;28;20487;-80
2020/12/21 03:41:45;;;;;;;18.17;9.90;;;;;;;5.69;88.65;95990.56;5055061;28;20683;-79
2020/12/21 03:44:12;;;;;;;16.47;9.87;;;;;;;5.65;89.64;95990.78;5055202;28;20454;-79
2020/12/21 03:46:39;;;;;;;12.73;8.63;;;;;;;5.56;89.79;95986.88;5055182;28;20471;-79
2020/12/21 03:49:05;;;;;;;26.13;16.87;;;;;;;5.32;90.82;95981.06;5054726;28;20453;-79
2020/12/21 03:51:32;;;;;;;32.27;23.50;;;;;;;5.38;91.44;95975.56;5055305;28;20441;-79
2020/12/21 03:53:58;;;;;;;30.40;23.27;;;;;;;5.43;90.62;95986.59;5054068;28;20460;-79
2020/12/21 03:56:25;;;;;;;19.23;10.60;;;;;;;5.50;91.64;95988.00;5054883;28;20444;-79
2020/12/21 03:58:51;;;;;;;15.20;8.70;;;;;;;5.49;90.86;95983.72;5054926;28;20505;-80
2020/12/21 04:01:17;;;;;;;11.80;7.33;;;;;;;5.49;90.72;95988.94;5054808;28;20495;-79
2020/12/21 04:03:44;;;;;;;14.63;9.80;;;;;;;5.58;90.54;95980.66;5054701;28;20559;-80
2020/12/21 04:06:11;;;;;;;19.20;10.60;;;;;;;5.63;90.17;95985.66;5054800;28;20454;-80
2020/12/21 04:08:37;;;;;;;18.30;12.70;;;;;;;5.67;90.73;95986.34;5054559;28;20544;-79
2020/12/21 04:11:05;;;;;;;15.43;10.43;;;;;;;5.74;90.51;95990.34;5054903;28;20450;-79
2020/12/21 04:13:32;;;;;;;19.57;10.60;;;;;;;5.77;90.56;95982.38;5054355;28;20433;-79
2020/12/21 04:15:58;;;;;;;16.50;12.03;;;;;;;5.82;89.74;95983.00;5054238;28;20437;-80
2020/12/21 04:18:24;;;;;;;16.50;9.53;;;;;;;5.86;90.23;95984.56;5019429;28;20489;-80
2020/12/21 04:20:52;;;;;;;16.37;10.30;;;;;;;5.94;89.65;95981.59;5054527;28;20444;-80
2020/12/21 04:23:18;;;;;;;18.90;12.30;;;;;;;5.99;89.34;95985.66;5054128;28;20504;-83
2020/12/21 04:25:44;;;;;;;15.30;10.30;;;;;;;6.02;89.38;95988.09;5019080;28;20438;-80
2020/12/21 04:28:11;;;;;;;19.90;12.10;;;;;;;6.07;89.21;95987.88;5054004;28;20456;-80
2020/12/21 04:30:37;;;;;;;17.50;11.53;;;;;;;6.11;88.31;95984.22;5054061;28;20446;-79
2020/12/21 04:33:03;;;;;;;25.03;16.07;;;;;;;6.12;89.07;95978.94;5054022;28;20941;-79
2020/12/21 04:35:30;;;;;;;31.73;16.37;;;;;;;6.15;88.47;95986.59;5053849;28;20461;-80
2020/12/21 04:37:57;;;;;;;39.13;18.27;;;;;;;6.16;88.90;95979.63;5054335;28;20445;-80
2020/12/21 04:40:24;;;;;;;31.60;17.87;;;;;;;6.17;87.64;95976.09;5053946;28;20598;-81
2020/12/21 04:42:51;;;;;;;31.20;16.47;;;;;;;6.18;88.28;95978.63;5053812;28;20468;-80
2020/12/21 04:45:18;;;;;;;31.70;16.10;;;;;;;6.20;88.14;95970.72;5053909;28;20801;-79
2020/12/21 04:47:45;;;;;;;30.43;16.47;;;;;;;6.22;88.08;95974.94;5018593;28;20437;-80
2020/12/21 04:50:12;;;;;;;23.47;14.53;;;;;;;6.24;88.55;95979.22;5053640;28;20445;-80
2020/12/21 04:52:50;;;;;;;24.58;16.05;;;;;;;6.30;88.27;95978.91;5070862;28;20445;-79
2020/12/21 04:55:19;;;;;;;30.30;14.50;;;;;;;6.32;87.74;95984.88;5071259;28;20255;-79
2020/12/21 04:57:55;;;;;;;18.37;13.37;;;;;;;6.31;87.41;95983.19;5037982;28;21045;-79
2020/12/21 05:00:23;;;;;;;21.73;14.83;;;;;;;6.29;87.28;95977.22;5071175;28;20449;-79
2020/12/21 05:02:49;;;;;;;31.70;16.27;;;;;;;6.31;87.72;95988.41;5071109;28;20440;-80
2020/12/21 05:05:30;;;;;;;27.70;17.37;;;;;;;6.31;87.47;95978.00;5070027;28;20855;-80
2020/12/21 05:07:57;;;;;;;27.37;15.23;;;;;;;6.29;87.79;95983.28;5054112;28;20444;-79
2020/12/21 05:10:24;;;;;;;24.07;14.37;;;;;;;6.28;87.49;95985.97;5065111;28;20446;-80
2020/12/21 05:13:01;;;;;;;28.97;16.73;;;;;;;6.27;87.67;95977.31;5053236;28;20450;-80
2020/12/21 05:15:27;;;;;;;25.27;14.17;;;;;;;6.27;87.34;95986.88;5053196;28;20452;-79
2020/12/21 05:18:10;;;;;;;25.07;13.33;;;;;;;6.26;88.05;95991.25;5053248;28;20442;-80
2020/12/21 05:20:38;;;;;;;36.67;17.13;;;;;;;6.22;88.05;95994.94;5053075;28;20787;-80
2020/12/21 05:23:06;;;;;;;32.73;19.70;;;;;;;6.17;87.66;95995.19;5032639;28;20477;-79
2020/12/21 05:25:34;;;;;;;38.97;20.57;;;;;;;6.15;87.69;95999.63;5033045;28;20450;-79
2020/12/21 05:28:11;;;;;;;32.80;17.07;;;;;;;6.10;88.50;96001.63;5032342;28;20439;-80
2020/12/21 05:30:54;;;;;;;23.83;13.97;;;;;;;5.98;88.23;95993.53;5032911;28;20504;-79
2020/12/21 05:33:21;;;;;;;21.53;15.13;;;;;;;5.91;88.57;95995.63;5013379;28;20957;-80
2020/12/21 05:35:48;;;;;;;22.63;14.40;;;;;;;5.89;89.08;95994.81;5032212;28;20450;-80
2020/12/21 05:38:26;;;;;;;31.63;19.60;;;;;;;5.86;89.59;96002.78;5032395;28;20482;-79
2020/12/21 05:40:55;;;;;;;40.10;23.27;;;;;;;5.85;89.75;96001.09;5032552;28;20485;-80
2020/12/21 05:43:28;;;;;;;45.90;24.17;;;;;;;5.84;89.61;95997.66;5032786;28;20450;-80
2020/12/21 05:46:08;;;;;;;39.20;21.97;;;;;;;5.85;88.95;96001.09;5032478;28;20438;-80
2020/12/21 05:48:37;;;;;;;36.57;20.70;;;;;;;5.83;89.07;95992.50;5032415;28;20461;-80
2020/12/21 05:51:05;;;;;;;37.70;21.67;;;;;;;5.85;89.72;96001.09;5032993;28;20802;-79
2020/12/21 05:53:37;;;;;;;34.73;21.60;;;;;;;5.87;89.67;96002.72;5032956;28;20458;-80
2020/12/21 05:56:05;;;;;;;39.47;21.10;;;;;;;5.93;89.62;96004.19;5013717;28;20469;-80
2020/12/21 05:58:33;;;;;;;43.97;23.17;;;;;;;5.94;88.49;96000.66;5032151;28;20571;-79
2020/12/21 06:01:04;;;;;;;30.67;19.13;;;;;;;5.95;88.50;95997.16;5032484;28;20500;-79
2020/12/21 06:03:39;;;;;;;26.80;17.13;;;;;;;5.96;87.67;96004.03;5032192;28;20449;-80
2020/12/21 06:06:11;;;;;;;20.70;14.40;;;;;;;5.97;87.99;96005.72;5032564;28;20502;-80
2020/12/21 06:08:37;;;;;;;28.83;16.20;;;;;;;5.97;87.23;96003.13;5031943;28;20930;-80
2020/12/21 06:11:12;;;;;;;29.43;17.27;;;;;;;5.97;87.56;96015.31;5032897;28;20443;-80
2020/12/21 06:13:42;;;;;;;41.20;25.23;;;;;;;5.88;87.23;96004.41;5032618;28;20953;-86
2020/12/21 06:16:10;;;;;;;39.47;22.50;;;;;;;5.86;88.81;96008.84;5033691;28;20777;-82
2020/12/21 06:18:36;;;;;;;32.33;19.83;;;;;;;5.86;88.87;96008.84;5033188;28;20485;-80
2020/12/21 06:21:03;;;;;;;33.90;21.20;;;;;;;5.89;89.60;96005.22;4998617;28;20443;-85
2020/12/21 06:23:31;;;;;;;23.50;16.17;;;;;;;5.90;89.33;95999.13;5033288;28;20474;-81
2020/12/21 06:26:11;;;;;;;34.67;14.90;;;;;;;5.95;89.73;96004.97;5032824;28;20446;-82
2020/12/21 06:28:38;;;;;;;23.37;14.20;;;;;;;5.95;89.58;95997.16;5032260;28;20954;-80
2020/12/21 06:31:18;;;;;;;24.47;14.90;;;;;;;5.98;89.41;96002.19;5032508;28;20465;-81
2020/12/21 06:33:45;;;;;;;21.80;13.20;;;;;;;5.94;88.81;96011.09;5032471;28;20810;-81
2020/12/21 06:36:12;;;;;;;21.63;11.63;;;;;;;5.93;88.94;96005.97;5032955;28;20815;-83
2020/12/21 06:38:46;;;;;;;29.07;13.17;;;;;;;5.95;88.68;96001.50;5033265;28;20489;-82
2020/12/21 06:41:15;;;;;;;21.83;13.30;;;;;;;5.93;88.31;96004.19;5033083;28;20500;-82
2020/12/21 06:43:53;;;;;;;22.77;13.50;;;;;;;5.91;88.40;96003.44;5033464;28;20442;-82
2020/12/21 06:46:20;;;;;;;34.80;18.30;;;;;;;5.87;88.80;96007.06;5032461;28;20457;-83
2020/12/21 06:48:49;;;;;;;41.77;22.77;;;;;;;5.72;90.93;96005.19;5032569;28;20447;-80
2020/12/21 06:51:18;;;;;;;30.93;17.10;;;;;;;5.74;90.76;95993.78;5032410;28;20446;-81
2020/12/21 06:53:57;;;;;;;35.63;17.50;;;;;;;5.83;91.64;96008.97;5032107;28;20442;-81
2020/12/21 06:56:26;;;;;;;36.80;16.03;;;;;;;5.88;90.09;96007.00;5032178;28;20528;-80
2020/12/21 06:58:54;;;;;;;43.30;20.77;;;;;;;5.92;89.86;96010.31;5032246;28;21055;-80
2020/12/21 07:01:22;;;;;;;39.33;19.37;;;;;;;5.93;90.28;96011.16;5031959;28;20449;-79
2020/12/21 07:03:49;;;;;;;33.17;19.43;;;;;;;5.96;89.76;96014.47;5032116;28;20465;-79
2020/12/21 07:06:15;;;;;;;33.03;19.13;;;;;;;5.92;89.26;96009.47;5032110;28;20513;-82
2020/12/21 07:08:43;;;;;;;28.87;17.27;;;;;;;5.92;89.15;96022.50;4997092;28;20438;-82
2020/12/21 07:11:16;;;;;;;28.50;18.10;;;;;;;5.95;89.52;96023.19;5032067;28;20452;-80
2020/12/21 07:13:43;;;;;;;31.67;17.40;;;;;;;5.96;88.47;96019.66;5031994;28;20803;-79
2020/12/21 07:16:10;;;;;;;32.67;16.83;;;;;;;6.01;88.83;96016.84;5032046;28;20442;-80
2020/12/21 07:18:36;;;;;;;37.43;18.43;;;;;;;6.07;88.26;96011.31;5031897;28;20953;-81
2020/12/21 07:21:07;;;;;;;27.00;14.73;;;;;;;6.04;88.10;96016.69;5031558;28;20458;-80
2020/12/21 07:23:33;;;;;;;41.23;21.40;;;;;;;5.88;89.02;96016.56;5031647;28;20501;-80
2020/12/21 07:25:59;;;;;;;30.47;18.60;;;;;;;5.86;89.06;96019.25;5031802;28;20458;-79
2020/12/21 07:28:26;;;;;;;34.73;18.10;;;;;;;5.90;89.54;96027.78;5030945;28;20454;-79
2020/12/21 07:30:55;;;;;;;41.40;21.97;;;;;;;5.97;89.33;96023.97;5034272;28;20442;-78
2020/12/21 07:33:21;;;;;;;39.27;22.00;;;;;;;6.01;89.53;96020.28;5034234;28;20496;-79
2020/12/21 07:35:56;;;;;;;34.47;21.70;;;;;;;6.08;88.97;96023.47;5034801;28;20458;-79
2020/12/21 07:38:23;;;;;;;34.93;21.60;;;;;;;6.15;88.30;96020.47;5035290;28;20449;-79
2020/12/21 07:40:51;;;;;;;35.93;21.10;;;;;;;6.20;87.83;96017.63;5034616;28;20446;-80
2020/12/21 07:43:22;;;;;;;30.93;17.90;;;;;;;6.22;87.16;96021.84;5035815;28;20442;-84
2020/12/21 07:45:50;;;;;;;30.57;18.07;;;;;;;6.21;87.15;96016.72;5036956;28;20450;-84
2020/12/21 07:48:19;;;;;;;25.67;17.90;;;;;;;6.25;87.18;96015.63;5037039;28;20453;-83
2020/12/21 07:50:46;;;;;;;30.03;17.77;;;;;;;6.30;87.16;96018.84;5047390;28;20593;-78
2020/12/21 07:53:13;;;;;;;22.73;16.60;;;;;;;6.34;87.33;96019.53;5040876;28;20452;-79
2020/12/21 07:55:40;;;;;;;30.17;17.60;;;;;;;6.38;86.57;96021.09;5041705;28;20928;-80
2020/12/21 07:58:15;;;;;;;26.93;18.20;;;;;;;6.38;86.12;96019.34;5035157;28;20446;-79
2020/12/21 08:00:54;;;;;;;29.80;17.77;;;;;;;6.41;86.14;96026.16;5034552;28;20945;-80
2020/12/21 08:03:24;;;;;;;39.53;20.30;;;;;;;6.45;85.77;96017.25;5034463;28;20499;-80
2020/12/21 08:05:50;;;;;;;36.10;21.80;;;;;;;6.48;85.70;96019.72;5034692;28;20463;-80
2020/12/21 08:08:22;;;;;;;35.87;21.93;;;;;;;6.42;85.68;96022.63;5034356;28;20438;-83
2020/12/21 08:10:55;;;;;;;28.50;18.63;;;;;;;6.34;85.41;96025.59;5034789;28;20925;-80
2020/12/21 08:13:22;;;;;;;34.67;20.83;;;;;;;6.33;85.78;96016.09;5016438;28;20450;-82
2020/12/21 08:15:48;;;;;;;31.30;18.07;;;;;;;6.31;85.62;96020.53;5034636;28;20843;-81
2020/12/21 08:18:15;;;;;;;33.50;19.70;;;;;;;6.32;86.11;96021.38;5034171;28;20501;-81
2020/12/21 08:20:52;;;;;;;33.87;21.50;;;;;;;6.36;86.47;96029.00;5034154;28;20458;-81
2020/12/21 08:23:23;;;;;;;32.87;20.30;;;;;;;6.42;86.36;96033.06;5034271;28;20480;-82
2020/12/21 08:25:49;;;;;;;37.13;22.40;;;;;;;6.46;86.54;96029.38;5034566;28;20901;-82
2020/12/21 08:28:25;;;;;;;39.83;23.27;;;;;;;6.55;85.90;96031.50;5034124;28;20564;-83
2020/12/21 08:31:03;;;;;;;40.70;22.70;;;;;;;6.57;85.78;96028.81;5035571;28;20504;-83
2020/12/21 08:33:30;;;;;;;44.40;26.33;;;;;;;6.64;85.33;96033.63;5034806;28;20446;-82
2020/12/21 08:35:57;;;;;;;40.13;23.30;;;;;;;6.68;84.66;96029.13;5036190;28;20446;-81
2020/12/21 08:38:24;;;;;;;36.50;19.97;;;;;;;6.69;84.16;96031.66;5035858;28;20454;-81
2020/12/21 08:40:54;;;;;;;34.27;19.10;;;;;;;6.72;83.83;96023.66;5038817;28;20812;-80
2020/12/21 08:43:21;;;;;;;37.53;17.87;;;;;;;6.78;83.44;96020.75;5040129;28;20446;-80
2020/12/21 08:45:49;;;;;;;38.00;20.53;;;;;;;6.82;83.56;96024.88;5035958;28;20458;-80
2020/12/21 08:48:15;;;;;;;35.00;20.40;;;;;;;6.86;84.00;96016.88;5034933;28;20450;-81
2020/12/21 08:50:41;;;;;;;31.47;20.07;;;;;;;6.87;82.68;96018.56;5037142;28;20492;-82
2020/12/21 08:53:09;;;;;;;20.73;11.37;;;;;;;6.60;79.98;96020.84;5039201;28;20454;-84
2020/12/21 08:55:36;;;;;;;11.23;8.07;;;;;;;6.45;80.76;96022.47;5038696;28;20450;-82
2020/12/21 08:58:02;;;;;;;6.43;5.67;;;;;;;6.40;78.86;96024.47;5039741;28;20443;-81
2020/12/21 09:00:28;;;;;;;9.70;5.47;;;;;;;6.45;79.30;96019.88;5039143;28;20485;-80
2020/12/21 09:02:55;;;;;;;7.73;6.40;;;;;;;6.52;79.29;96018.63;5035508;28;20473;-80
2020/12/21 09:05:21;;;;;;;11.17;7.17;;;;;;;6.60;79.38;96013.84;5039534;28;20448;-81
2020/12/21 09:07:48;;;;;;;12.63;7.40;;;;;;;6.65;79.29;96008.41;5040711;28;21193;-81
2020/12/21 09:10:15;;;;;;;20.10;8.57;;;;;;;6.68;79.38;96005.66;5039696;28;20482;-82
2020/12/21 09:12:44;;;;;;;14.23;6.70;;;;;;;6.69;79.09;95999.53;5038688;28;20453;-84
2020/12/21 09:15:10;;;;;;;9.27;6.83;;;;;;;6.75;78.62;96000.03;5038501;28;20807;-81
2020/12/21 09:17:37;;;;;;;10.60;6.90;;;;;;;6.84;79.12;95994.31;5036908;28;20438;-81
2020/12/21 09:20:03;;;;;;;11.17;8.17;;;;;;;6.94;78.54;95999.06;5036791;28;20533;-81
2020/12/21 09:22:30;;;;;;;16.27;8.53;;;;;;;7.02;78.65;96004.72;5002620;28;20443;-82
2020/12/21 09:24:56;;;;;;;11.47;7.90;;;;;;;6.99;77.87;95997.06;5034658;28;20460;-80
2020/12/21 09:27:24;;;;;;;12.30;8.67;;;;;;;7.07;77.40;95994.88;5042097;28;20961;-81
2020/12/21 09:29:50;;;;;;;13.33;8.00;;;;;;;7.05;77.62;96004.56;5058052;28;20453;-81
2020/12/21 09:32:17;;;;;;;11.67;7.70;;;;;;;7.03;77.63;95998.59;5047405;28;20457;-82
2020/12/21 09:34:43;;;;;;;9.70;7.87;;;;;;;7.08;77.78;96001.78;5041594;28;20453;-82
2020/12/21 09:37:12;;;;;;;12.00;8.80;;;;;;;7.06;76.75;96006.25;5041617;28;20521;-82
2020/12/21 09:39:38;;;;;;;13.30;8.97;;;;;;;7.00;77.03;96001.38;5042017;28;20493;-82
2020/12/21 09:42:04;;;;;;;14.33;10.50;;;;;;;7.03;77.41;96001.19;5040850;28;20529;-81
2020/12/21 09:44:32;;;;;;;13.43;10.27;;;;;;;7.04;77.07;95995.06;5006442;28;20987;-81
2020/12/21 09:46:59;;;;;;;14.50;9.30;;;;;;;6.97;77.19;95984.09;5024220;28;20434;-81
2020/12/21 09:49:26;;;;;;;12.93;8.17;;;;;;;6.96;77.29;95987.63;5047168;28;20452;-83
2020/12/21 09:51:53;;;;;;;11.27;8.20;;;;;;;6.80;77.10;95977.16;5060422;28;20453;-83
2020/12/21 09:54:21;;;;;;;11.07;8.73;;;;;;;6.80;77.69;95979.75;5060232;28;20453;-83
2020/12/21 09:56:47;;;;;;;14.30;9.30;;;;;;;6.84;77.68;95978.69;5026082;28;20453;-81
2020/12/21 09:59:14;;;;;;;12.60;8.37;;;;;;;6.88;78.64;95975.91;5057218;28;21014;-83
2020/12/21 10:01:42;;;;;;;16.20;9.30;;;;;;;6.89;78.37;95975.81;5058031;28;20941;-82
2020/12/21 10:04:08;;;;;;;13.37;8.80;;;;;;;6.94;77.92;95972.97;5054760;28;20441;-84
2020/12/21 10:06:35;;;;;;;17.60;10.20;;;;;;;6.95;76.81;95972.06;5056898;28;20503;-85
2020/12/21 10:09:01;;;;;;;17.20;10.40;;;;;;;6.94;77.38;95966.00;5056177;28;20473;-82
2020/12/21 10:11:28;;;;;;;22.60;10.40;;;;;;;7.01;77.85;95963.91;5056988;28;20528;-84
2020/12/21 10:13:54;;;;;;;12.33;9.63;;;;;;;7.04;78.29;95964.59;5055215;28;20816;-82
2020/12/21 10:16:20;;;;;;;14.33;10.17;;;;;;;7.03;77.02;95968.13;5063387;28;20446;-84
2020/12/21 10:18:48;;;;;;;14.30;10.23;;;;;;;7.09;77.85;95961.72;5061215;28;20489;-85
2020/12/21 10:21:14;;;;;;;14.27;9.73;;;;;;;7.10;77.41;95958.19;5053712;28;20950;-83
2020/12/21 10:23:41;;;;;;;15.70;11.10;;;;;;;7.13;76.96;95963.22;5040036;28;20481;-84
2020/12/21 10:26:07;;;;;;;19.90;12.20;;;;;;;7.12;76.38;95958.94;5038073;28;20475;-84
2020/12/21 10:28:34;;;;;;;13.37;10.40;;;;;;;7.01;76.42;95958.69;5039682;28;20934;-84
2020/12/21 10:31:01;;;;;;;20.83;10.70;;;;;;;6.93;77.59;95948.63;5041564;28;20869;-86
2020/12/21 10:33:28;;;;;;;25.70;13.80;;;;;;;6.74;77.91;95948.78;5043078;28;20546;-82
2020/12/21 10:35:56;;;;;;;24.43;14.40;;;;;;;6.71;78.77;95946.34;5042460;28;20517;-84
2020/12/21 10:38:23;;;;;;;23.33;14.07;;;;;;;6.75;78.84;95953.09;5005001;28;21052;-82
2020/12/21 10:40:50;;;;;;;12.03;10.13;;;;;;;6.80;78.89;95945.84;5038679;28;20195;-85
2020/12/21 10:43:16;;;;;;;10.17;7.93;;;;;;;6.82;78.43;95938.78;5005176;28;20446;-83
2020/12/21 10:45:43;;;;;;;12.43;9.93;;;;;;;6.84;78.42;95933.47;5021299;28;20993;-83
2020/12/21 10:48:09;;;;;;;14.67;9.60;;;;;;;8.08;100.00;95912.53;5037977;28;20454;-80
2020/12/21 10:50:36;;;;;;;11.77;9.03;;;;;;;7.98;84.28;95934.94;5002570;28;20525;-83
2020/12/21 10:53:03;;;;;;;15.07;10.17;;;;;;;7.82;77.62;95936.75;5035546;28;21008;-87
2020/12/21 10:55:29;;;;;;;22.07;11.73;;;;;;;7.63;75.55;95934.34;5036391;28;20435;-86
2020/12/21 10:57:56;;;;;;;15.23;11.17;;;;;;;7.46;76.19;95932.66;5036948;28;20450;-88
2020/12/21 11:00:26;;;;;;;19.40;10.97;;;;;;;7.39;76.80;95928.72;5038577;28;20991;-87
2020/12/21 11:02:52;;;;;;;18.93;11.80;;;;;;;6.94;77.35;95928.59;5039953;28;20571;-87
2020/12/21 11:05:19;;;;;;;14.13;10.30;;;;;;;6.93;77.54;95924.31;5043629;28;20455;-89
2020/12/21 11:07:47;;;;;;;17.17;12.30;;;;;;;6.97;78.12;95931.06;5042485;28;20457;-86
2020/12/21 11:10:14;;;;;;;25.77;11.47;;;;;;;6.94;77.91;95926.88;5043999;28;20453;-85
2020/12/21 11:12:44;;;;;;;16.03;11.00;;;;;;;6.84;78.26;95926.50;5041898;28;20446;-86
2020/12/21 11:15:10;;;;;;;14.90;9.83;;;;;;;6.54;78.58;95928.13;5040652;28;20461;-87
2020/12/21 11:17:37;;;;;;;19.77;12.30;;;;;;;6.44;79.66;95930.38;5043088;28;20464;-86
2020/12/21 11:20:04;;;;;;;15.93;11.77;;;;;;;6.53;79.61;95931.66;5040946;28;20509;-86
2020/12/21 11:22:31;;;;;;;17.07;10.60;;;;;;;6.49;80.29;95928.38;5040791;28;20922;-86
2020/12/21 11:24:57;;;;;;;14.00;10.60;;;;;;;6.26;80.28;95926.09;5044026;28;20462;-86
2020/12/21 11:27:25;;;;;;;19.93;11.40;;;;;;;6.40;80.27;95925.41;5042218;28;20522;-85
2020/12/21 11:29:51;;;;;;;17.70;12.60;;;;;;;6.53;80.71;95931.66;5041019;28;20513;-85
2020/12/21 11:32:18;;;;;;;31.40;15.03;;;;;;;6.63;80.06;95932.84;5041397;28;20457;-87